sensor_id;sensor_type;location;lat;lon;timestamp;P1;durP1;ratioP1;P2;durP2;ratioP2
22648;SDS011;11491;41.942;24.220;2024-01-27T00:02:23;22.50;;;11.50;;
22648;SDS011;11491;41.942;24.220;2024-01-27T00:04:50;37.63;;;20.90;;
22648;SDS011;11491;41.942;24.220;2024-01-27T00:07:17;32.60;;;17.20;;
22648;SDS011;11491;41.942;24.220;2024-01-27T00:09:45;36.30;;;20.33;;
22648;SDS011;11491;41.942;24.220;2024-01-27T00:12:12;43.93;;;24.63;;
22648;SDS011;11491;41.942;24.220;2024-01-27T00:14:39;36.83;;;20.63;;
22648;SDS011;11491;41.942;24.220;2024-01-27T00:17:05;36.47;;;20.53;;
22648;SDS011;11491;41.942;24.220;2024-01-27T00:19:32;36.70;;;18.47;;
22648;SDS011;11491;41.942;24.220;2024-01-27T00:21:59;34.43;;;18.93;;
22648;SDS011;11491;41.942;24.220;2024-01-27T00:24:26;39.10;;;23.70;;
22648;SDS011;11491;41.942;24.220;2024-01-27T00:26:54;32.20;;;19.23;;
22648;SDS011;11491;41.942;24.220;2024-01-27T00:29:20;27.47;;;14.07;;
22648;SDS011;11491;41.942;24.220;2024-01-27T00:31:47;20.97;;;12.30;;
22648;SDS011;11491;41.942;24.220;2024-01-27T00:34:14;21.43;;;11.90;;
22648;SDS011;11491;41.942;24.220;2024-01-27T00:36:41;23.67;;;14.13;;
22648;SDS011;11491;41.942;24.220;2024-01-27T00:39:13;16.93;;;9.87;;
22648;SDS011;11491;41.942;24.220;2024-01-27T00:41:40;17.53;;;9.33;;
22648;SDS011;11491;41.942;24.220;2024-01-27T00:44:08;19.67;;;8.73;;
22648;SDS011;11491;41.942;24.220;2024-01-27T00:46:35;12.43;;;7.23;;
22648;SDS011;11491;41.942;24.220;2024-01-27T00:49:02;8.90;;;4.90;;
22648;SDS011;11491;41.942;24.220;2024-01-27T00:51:29;27.00;;;13.87;;
22648;SDS011;11491;41.942;24.220;2024-01-27T00:53:56;21.57;;;11.80;;
22648;SDS011;11491;41.942;24.220;2024-01-27T00:56:22;17.03;;;10.17;;
22648;SDS011;11491;41.942;24.220;2024-01-27T00:58:49;18.07;;;10.60;;
22648;SDS011;11491;41.942;24.220;2024-01-27T01:01:17;21.53;;;12.03;;
22648;SDS011;11491;41.942;24.220;2024-01-27T01:03:44;25.87;;;13.30;;
22648;SDS011;11491;41.942;24.220;2024-01-27T01:06:11;28.73;;;16.00;;
22648;SDS011;11491;41.942;24.220;2024-01-27T01:08:37;30.27;;;16.13;;
22648;SDS011;11491;41.942;24.220;2024-01-27T01:11:04;31.63;;;16.80;;
22648;SDS011;11491;41.942;24.220;2024-01-27T01:13:31;39.90;;;21.07;;
22648;SDS011;11491;41.942;24.220;2024-01-27T01:15:58;34.93;;;19.33;;
22648;SDS011;11491;41.942;24.220;2024-01-27T01:18:26;25.40;;;14.77;;
22648;SDS011;11491;41.942;24.220;2024-01-27T01:20:52;16.30;;;9.77;;
22648;SDS011;11491;41.942;24.220;2024-01-27T01:23:19;22.67;;;13.67;;
22648;SDS011;11491;41.942;24.220;2024-01-27T01:25:46;22.33;;;12.23;;
22648;SDS011;11491;41.942;24.220;2024-01-27T01:28:11;24.90;;;13.80;;
22648;SDS011;11491;41.942;24.220;2024-01-27T01:30:38;21.40;;;11.63;;
22648;SDS011;11491;41.942;24.220;2024-01-27T01:33:05;21.90;;;13.27;;
22648;SDS011;11491;41.942;24.220;2024-01-27T01:35:33;34.90;;;18.80;;
22648;SDS011;11491;41.942;24.220;2024-01-27T01:38:00;24.40;;;13.73;;
22648;SDS011;11491;41.942;24.220;2024-01-27T01:40:26;18.03;;;11.40;;
22648;SDS011;11491;41.942;24.220;2024-01-27T01:42:52;23.37;;;13.10;;
22648;SDS011;11491;41.942;24.220;2024-01-27T01:45:19;15.57;;;9.07;;
22648;SDS011;11491;41.942;24.220;2024-01-27T01:47:46;15.63;;;8.87;;
22648;SDS011;11491;41.942;24.220;2024-01-27T01:50:13;17.53;;;8.77;;
22648;SDS011;11491;41.942;24.220;2024-01-27T01:52:41;13.57;;;6.83;;
22648;SDS011;11491;41.942;24.220;2024-01-27T01:55:08;15.00;;;8.40;;
22648;SDS011;11491;41.942;24.220;2024-01-27T01:57:35;16.70;;;10.37;;
22648;SDS011;11491;41.942;24.220;2024-01-27T02:00:02;11.07;;;6.80;;
22648;SDS011;11491;41.942;24.220;2024-01-27T02:02:29;10.40;;;6.30;;
22648;SDS011;11491;41.942;24.220;2024-01-27T02:04:56;12.40;;;5.70;;
22648;SDS011;11491;41.942;24.220;2024-01-27T02:07:23;10.80;;;6.53;;
22648;SDS011;11491;41.942;24.220;2024-01-27T02:09:51;11.90;;;7.43;;
22648;SDS011;11491;41.942;24.220;2024-01-27T02:12:18;20.53;;;10.80;;
22648;SDS011;11491;41.942;24.220;2024-01-27T02:14:45;21.93;;;11.33;;
22648;SDS011;11491;41.942;24.220;2024-01-27T02:17:11;30.33;;;14.50;;
22648;SDS011;11491;41.942;24.220;2024-01-27T02:19:38;18.57;;;9.57;;
22648;SDS011;11491;41.942;24.220;2024-01-27T02:22:05;11.90;;;6.50;;
22648;SDS011;11491;41.942;24.220;2024-01-27T02:24:33;14.73;;;8.53;;
22648;SDS011;11491;41.942;24.220;2024-01-27T02:26:59;11.60;;;6.47;;
22648;SDS011;11491;41.942;24.220;2024-01-27T02:29:26;9.40;;;5.07;;
22648;SDS011;11491;41.942;24.220;2024-01-27T02:31:53;11.40;;;6.33;;
22648;SDS011;11491;41.942;24.220;2024-01-27T02:34:20;9.93;;;5.37;;
22648;SDS011;11491;41.942;24.220;2024-01-27T02:36:47;5.30;;;2.93;;
22648;SDS011;11491;41.942;24.220;2024-01-27T02:39:14;9.83;;;4.10;;
22648;SDS011;11491;41.942;24.220;2024-01-27T02:41:42;8.67;;;4.57;;
22648;SDS011;11491;41.942;24.220;2024-01-27T02:44:09;9.73;;;5.53;;
22648;SDS011;11491;41.942;24.220;2024-01-27T02:46:35;11.07;;;5.23;;
22648;SDS011;11491;41.942;24.220;2024-01-27T02:49:02;9.83;;;4.90;;
22648;SDS011;11491;41.942;24.220;2024-01-27T02:51:29;7.17;;;3.97;;
22648;SDS011;11491;41.942;24.220;2024-01-27T02:53:56;5.00;;;2.77;;
22648;SDS011;11491;41.942;24.220;2024-01-27T02:56:22;4.77;;;2.63;;
22648;SDS011;11491;41.942;24.220;2024-01-27T02:58:50;5.60;;;3.07;;
22648;SDS011;11491;41.942;24.220;2024-01-27T03:01:17;7.63;;;4.47;;
22648;SDS011;11491;41.942;24.220;2024-01-27T03:03:44;9.00;;;5.13;;
22648;SDS011;11491;41.942;24.220;2024-01-27T03:06:11;9.80;;;5.13;;
22648;SDS011;11491;41.942;24.220;2024-01-27T03:08:37;11.33;;;5.80;;
22648;SDS011;11491;41.942;24.220;2024-01-27T03:11:04;6.13;;;3.80;;
22648;SDS011;11491;41.942;24.220;2024-01-27T03:13:31;4.90;;;2.93;;
22648;SDS011;11491;41.942;24.220;2024-01-27T03:15:59;6.67;;;3.33;;
22648;SDS011;11491;41.942;24.220;2024-01-27T03:18:26;8.87;;;4.90;;
22648;SDS011;11491;41.942;24.220;2024-01-27T03:20:52;9.83;;;5.10;;
22648;SDS011;11491;41.942;24.220;2024-01-27T03:23:19;7.47;;;4.20;;
22648;SDS011;11491;41.942;24.220;2024-01-27T03:25:46;13.50;;;6.70;;
22648;SDS011;11491;41.942;24.220;2024-01-27T03:28:12;20.87;;;10.83;;
22648;SDS011;11491;41.942;24.220;2024-01-27T03:30:39;28.13;;;15.03;;
22648;SDS011;11491;41.942;24.220;2024-01-27T03:33:07;26.33;;;13.97;;
22648;SDS011;11491;41.942;24.220;2024-01-27T03:35:36;21.90;;;11.90;;
22648;SDS011;11491;41.942;24.220;2024-01-27T03:38:03;20.10;;;12.07;;
22648;SDS011;11491;41.942;24.220;2024-01-27T03:40:30;12.00;;;7.57;;
22648;SDS011;11491;41.942;24.220;2024-01-27T03:42:57;10.70;;;6.67;;
22648;SDS011;11491;41.942;24.220;2024-01-27T03:45:23;11.70;;;6.17;;
22648;SDS011;11491;41.942;24.220;2024-01-27T03:47:50;14.20;;;7.43;;
22648;SDS011;11491;41.942;24.220;2024-01-27T03:50:18;14.20;;;6.20;;
22648;SDS011;11491;41.942;24.220;2024-01-27T03:52:45;14.10;;;8.23;;
22648;SDS011;11491;41.942;24.220;2024-01-27T03:55:11;17.83;;;8.23;;
22648;SDS011;11491;41.942;24.220;2024-01-27T03:57:38;19.03;;;9.10;;
22648;SDS011;11491;41.942;24.220;2024-01-27T04:00:05;25.90;;;15.30;;
22648;SDS011;11491;41.942;24.220;2024-01-27T04:02:33;24.27;;;12.63;;
22648;SDS011;11491;41.942;24.220;2024-01-27T04:05:00;25.43;;;14.50;;
22648;SDS011;11491;41.942;24.220;2024-01-27T04:07:28;27.77;;;15.23;;
22648;SDS011;11491;41.942;24.220;2024-01-27T04:09:54;38.43;;;20.90;;
22648;SDS011;11491;41.942;24.220;2024-01-27T04:12:21;26.17;;;15.05;;
22648;SDS011;11491;41.942;24.220;2024-01-27T04:14:48;28.20;;;15.77;;
22648;SDS011;11491;41.942;24.220;2024-01-27T04:17:16;27.95;;;15.40;;
22648;SDS011;11491;41.942;24.220;2024-01-27T04:19:42;28.77;;;15.88;;
22648;SDS011;11491;41.942;24.220;2024-01-27T04:22:09;27.88;;;14.25;;
22648;SDS011;11491;41.942;24.220;2024-01-27T04:24:37;30.05;;;16.48;;
22648;SDS011;11491;41.942;24.220;2024-01-27T04:27:04;62.83;;;32.90;;
22648;SDS011;11491;41.942;24.220;2024-01-27T04:29:31;54.97;;;30.83;;
22648;SDS011;11491;41.942;24.220;2024-01-27T04:31:58;44.85;;;26.05;;
22648;SDS011;11491;41.942;24.220;2024-01-27T04:34:25;36.58;;;21.73;;
22648;SDS011;11491;41.942;24.220;2024-01-27T04:36:52;42.78;;;26.80;;
22648;SDS011;11491;41.942;24.220;2024-01-27T04:39:18;36.05;;;23.70;;
22648;SDS011;11491;41.942;24.220;2024-01-27T04:41:46;36.30;;;22.30;;
22648;SDS011;11491;41.942;24.220;2024-01-27T04:44:13;36.72;;;21.80;;
22648;SDS011;11491;41.942;24.220;2024-01-27T04:46:40;43.80;;;23.83;;
22648;SDS011;11491;41.942;24.220;2024-01-27T04:49:07;42.28;;;24.58;;
22648;SDS011;11491;41.942;24.220;2024-01-27T04:51:34;29.33;;;20.90;;
22648;SDS011;11491;41.942;24.220;2024-01-27T04:54:01;44.97;;;24.92;;
22648;SDS011;11491;41.942;24.220;2024-01-27T04:56:27;39.38;;;24.38;;
22648;SDS011;11491;41.942;24.220;2024-01-27T04:58:55;33.20;;;20.67;;
22648;SDS011;11491;41.942;24.220;2024-01-27T05:01:22;32.55;;;21.15;;
22648;SDS011;11491;41.942;24.220;2024-01-27T05:03:49;36.03;;;21.77;;
22648;SDS011;11491;41.942;24.220;2024-01-27T05:06:16;36.50;;;22.63;;
22648;SDS011;11491;41.942;24.220;2024-01-27T05:08:43;38.22;;;23.90;;
22648;SDS011;11491;41.942;24.220;2024-01-27T05:11:10;32.75;;;20.88;;
22648;SDS011;11491;41.942;24.220;2024-01-27T05:13:37;36.03;;;21.50;;
22648;SDS011;11491;41.942;24.220;2024-01-27T05:16:05;58.72;;;33.88;;
22648;SDS011;11491;41.942;24.220;2024-01-27T05:18:33;67.78;;;41.35;;
22648;SDS011;11491;41.942;24.220;2024-01-27T05:20:59;64.95;;;39.45;;
22648;SDS011;11491;41.942;24.220;2024-01-27T05:23:26;175.82;;;84.30;;
22648;SDS011;11491;41.942;24.220;2024-01-27T05:25:53;132.10;;;70.90;;
22648;SDS011;11491;41.942;24.220;2024-01-27T05:28:20;113.03;;;63.05;;
22648;SDS011;11491;41.942;24.220;2024-01-27T05:30:46;96.72;;;55.55;;
22648;SDS011;11491;41.942;24.220;2024-01-27T05:33:15;109.28;;;63.08;;
22648;SDS011;11491;41.942;24.220;2024-01-27T05:35:42;100.85;;;59.10;;
22648;SDS011;11491;41.942;24.220;2024-01-27T05:38:09;117.45;;;67.25;;
22648;SDS011;11491;41.942;24.220;2024-01-27T05:40:35;110.15;;;62.72;;
22648;SDS011;11491;41.942;24.220;2024-01-27T05:43:02;105.35;;;62.58;;
22648;SDS011;11491;41.942;24.220;2024-01-27T05:45:29;131.55;;;74.68;;
22648;SDS011;11491;41.942;24.220;2024-01-27T05:47:56;139.32;;;80.97;;
22648;SDS011;11491;41.942;24.220;2024-01-27T05:50:24;139.85;;;82.53;;
22648;SDS011;11491;41.942;24.220;2024-01-27T05:52:52;135.25;;;75.70;;
22648;SDS011;11491;41.942;24.220;2024-01-27T05:55:19;148.27;;;86.60;;
22648;SDS011;11491;41.942;24.220;2024-01-27T05:57:44;144.20;;;88.85;;
22648;SDS011;11491;41.942;24.220;2024-01-27T06:00:12;151.20;;;89.20;;
22648;SDS011;11491;41.942;24.220;2024-01-27T06:02:39;176.75;;;103.40;;
22648;SDS011;11491;41.942;24.220;2024-01-27T06:05:06;193.77;;;112.70;;
22648;SDS011;11491;41.942;24.220;2024-01-27T06:07:37;209.25;;;120.60;;
22648;SDS011;11491;41.942;24.220;2024-01-27T06:10:04;210.60;;;124.85;;
22648;SDS011;11491;41.942;24.220;2024-01-27T06:12:33;183.15;;;116.50;;
22648;SDS011;11491;41.942;24.220;2024-01-27T06:14:59;179.52;;;107.60;;
22648;SDS011;11491;41.942;24.220;2024-01-27T06:17:26;174.63;;;104.40;;
22648;SDS011;11491;41.942;24.220;2024-01-27T06:19:53;168.55;;;104.90;;
22648;SDS011;11491;41.942;24.220;2024-01-27T06:22:20;182.75;;;113.20;;
22648;SDS011;11491;41.942;24.220;2024-01-27T06:24:48;186.93;;;113.43;;
22648;SDS011;11491;41.942;24.220;2024-01-27T06:27:15;197.75;;;121.15;;
22648;SDS011;11491;41.942;24.220;2024-01-27T06:29:42;202.77;;;125.15;;
22648;SDS011;11491;41.942;24.220;2024-01-27T06:32:09;228.85;;;138.40;;
22648;SDS011;11491;41.942;24.220;2024-01-27T06:34:36;210.85;;;124.32;;
22648;SDS011;11491;41.942;24.220;2024-01-27T06:37:02;221.82;;;137.27;;
22648;SDS011;11491;41.942;24.220;2024-01-27T06:39:30;231.02;;;138.93;;
22648;SDS011;11491;41.942;24.220;2024-01-27T06:41:58;291.52;;;178.05;;
22648;SDS011;11491;41.942;24.220;2024-01-27T06:44:25;297.50;;;178.95;;
22648;SDS011;11491;41.942;24.220;2024-01-27T06:46:51;326.50;;;198.57;;
22648;SDS011;11491;41.942;24.220;2024-01-27T06:49:18;279.85;;;164.98;;
22648;SDS011;11491;41.942;24.220;2024-01-27T06:51:45;171.65;;;103.03;;
22648;SDS011;11491;41.942;24.220;2024-01-27T06:54:12;138.75;;;89.65;;
22648;SDS011;11491;41.942;24.220;2024-01-27T06:56:38;186.02;;;115.95;;
22648;SDS011;11491;41.942;24.220;2024-01-27T06:59:06;282.13;;;167.60;;
22648;SDS011;11491;41.942;24.220;2024-01-27T07:01:33;295.55;;;184.55;;
22648;SDS011;11491;41.942;24.220;2024-01-27T07:04:00;248.23;;;150.32;;
22648;SDS011;11491;41.942;24.220;2024-01-27T07:06:26;308.25;;;184.20;;
22648;SDS011;11491;41.942;24.220;2024-01-27T07:08:53;332.67;;;192.25;;
22648;SDS011;11491;41.942;24.220;2024-01-27T07:11:20;234.68;;;146.80;;
22648;SDS011;11491;41.942;24.220;2024-01-27T07:13:47;250.95;;;160.60;;
22648;SDS011;11491;41.942;24.220;2024-01-27T07:16:15;139.60;;;85.45;;
22648;SDS011;11491;41.942;24.220;2024-01-27T07:18:41;106.13;;;67.22;;
22648;SDS011;11491;41.942;24.220;2024-01-27T07:21:08;97.63;;;60.70;;
22648;SDS011;11491;41.942;24.220;2024-01-27T07:23:40;92.25;;;57.38;;
22648;SDS011;11491;41.942;24.220;2024-01-27T07:26:07;87.05;;;57.97;;
22648;SDS011;11491;41.942;24.220;2024-01-27T07:28:35;170.35;;;105.53;;
22648;SDS011;11491;41.942;24.220;2024-01-27T07:31:01;198.40;;;122.50;;
22648;SDS011;11491;41.942;24.220;2024-01-27T07:33:30;189.57;;;119.20;;
22648;SDS011;11491;41.942;24.220;2024-01-27T07:35:57;228.25;;;143.70;;
22648;SDS011;11491;41.942;24.220;2024-01-27T07:38:23;283.25;;;172.43;;
22648;SDS011;11491;41.942;24.220;2024-01-27T07:40:50;250.85;;;155.55;;
22648;SDS011;11491;41.942;24.220;2024-01-27T07:43:17;264.83;;;160.98;;
22648;SDS011;11491;41.942;24.220;2024-01-27T07:45:43;258.63;;;160.15;;
22648;SDS011;11491;41.942;24.220;2024-01-27T07:48:11;254.15;;;160.10;;
22648;SDS011;11491;41.942;24.220;2024-01-27T07:50:39;250.20;;;157.63;;
22648;SDS011;11491;41.942;24.220;2024-01-27T07:53:10;260.42;;;166.25;;
22648;SDS011;11491;41.942;24.220;2024-01-27T07:55:37;285.40;;;187.52;;
22648;SDS011;11491;41.942;24.220;2024-01-27T07:58:04;271.08;;;180.70;;
22648;SDS011;11491;41.942;24.220;2024-01-27T08:00:31;266.50;;;175.13;;
22648;SDS011;11491;41.942;24.220;2024-01-27T08:02:57;281.25;;;182.57;;
22648;SDS011;11491;41.942;24.220;2024-01-27T08:05:24;308.70;;;200.25;;
22648;SDS011;11491;41.942;24.220;2024-01-27T08:07:52;321.95;;;187.73;;
22648;SDS011;11491;41.942;24.220;2024-01-27T08:10:19;207.23;;;133.75;;
22648;SDS011;11491;41.942;24.220;2024-01-27T08:12:46;194.40;;;124.40;;
22648;SDS011;11491;41.942;24.220;2024-01-27T08:15:13;197.90;;;125.03;;
22648;SDS011;11491;41.942;24.220;2024-01-27T08:17:40;174.38;;;113.97;;
22648;SDS011;11491;41.942;24.220;2024-01-27T08:20:07;165.13;;;111.07;;
22648;SDS011;11491;41.942;24.220;2024-01-27T08:22:34;171.13;;;114.43;;
22648;SDS011;11491;41.942;24.220;2024-01-27T08:25:03;171.48;;;118.47;;
22648;SDS011;11491;41.942;24.220;2024-01-27T08:27:30;190.02;;;128.80;;
22648;SDS011;11491;41.942;24.220;2024-01-27T08:29:57;170.48;;;112.85;;
22648;SDS011;11491;41.942;24.220;2024-01-27T08:32:23;194.38;;;128.20;;
22648;SDS011;11491;41.942;24.220;2024-01-27T08:34:50;248.55;;;164.80;;
22648;SDS011;11491;41.942;24.220;2024-01-27T08:37:17;228.02;;;149.48;;
22648;SDS011;11491;41.942;24.220;2024-01-27T08:39:45;226.15;;;150.07;;
22648;SDS011;11491;41.942;24.220;2024-01-27T08:42:14;215.45;;;144.10;;
22648;SDS011;11491;41.942;24.220;2024-01-27T08:44:40;255.23;;;160.10;;
22648;SDS011;11491;41.942;24.220;2024-01-27T08:47:07;205.18;;;139.50;;
22648;SDS011;11491;41.942;24.220;2024-01-27T08:49:34;202.65;;;138.07;;
22648;SDS011;11491;41.942;24.220;2024-01-27T08:52:00;172.05;;;120.50;;
22648;SDS011;11491;41.942;24.220;2024-01-27T08:54:27;149.48;;;107.90;;
22648;SDS011;11491;41.942;24.220;2024-01-27T08:56:54;182.55;;;132.20;;
22648;SDS011;11491;41.942;24.220;2024-01-27T08:59:22;203.32;;;141.48;;
22648;SDS011;11491;41.942;24.220;2024-01-27T09:01:49;222.88;;;150.05;;
22648;SDS011;11491;41.942;24.220;2024-01-27T09:04:16;155.18;;;108.95;;
22648;SDS011;11491;41.942;24.220;2024-01-27T09:06:42;131.75;;;92.07;;
22648;SDS011;11491;41.942;24.220;2024-01-27T09:09:09;149.40;;;109.15;;
22648;SDS011;11491;41.942;24.220;2024-01-27T09:11:37;194.18;;;134.45;;
22648;SDS011;11491;41.942;24.220;2024-01-27T09:14:04;208.18;;;139.20;;
22648;SDS011;11491;41.942;24.220;2024-01-27T09:16:33;271.10;;;184.85;;
22648;SDS011;11491;41.942;24.220;2024-01-27T09:19:00;276.25;;;184.52;;
22648;SDS011;11491;41.942;24.220;2024-01-27T09:21:27;292.02;;;196.57;;
22648;SDS011;11491;41.942;24.220;2024-01-27T09:23:55;223.82;;;150.63;;
22648;SDS011;11491;41.942;24.220;2024-01-27T09:26:22;209.55;;;140.88;;
22648;SDS011;11491;41.942;24.220;2024-01-27T09:28:49;206.63;;;139.27;;
22648;SDS011;11491;41.942;24.220;2024-01-27T09:31:19;225.52;;;152.10;;
22648;SDS011;11491;41.942;24.220;2024-01-27T09:33:50;286.38;;;191.02;;
22648;SDS011;11491;41.942;24.220;2024-01-27T09:36:18;165.68;;;108.32;;
22648;SDS011;11491;41.942;24.220;2024-01-27T09:38:45;40.10;;;26.25;;
22648;SDS011;11491;41.942;24.220;2024-01-27T09:41:12;83.88;;;52.30;;
22648;SDS011;11491;41.942;24.220;2024-01-27T09:43:40;63.05;;;40.90;;
22648;SDS011;11491;41.942;24.220;2024-01-27T09:46:09;36.85;;;26.52;;
22648;SDS011;11491;41.942;24.220;2024-01-27T09:48:36;25.92;;;19.27;;
22648;SDS011;11491;41.942;24.220;2024-01-27T09:51:05;25.48;;;19.52;;
22648;SDS011;11491;41.942;24.220;2024-01-27T09:53:33;15.85;;;10.25;;
22648;SDS011;11491;41.942;24.220;2024-01-27T09:56:00;11.63;;;8.68;;
22648;SDS011;11491;41.942;24.220;2024-01-27T09:58:28;18.90;;;11.98;;
22648;SDS011;11491;41.942;24.220;2024-01-27T10:00:56;15.20;;;10.63;;
22648;SDS011;11491;41.942;24.220;2024-01-27T10:03:23;19.27;;;12.30;;
22648;SDS011;11491;41.942;24.220;2024-01-27T10:05:51;17.67;;;12.20;;
22648;SDS011;11491;41.942;24.220;2024-01-27T10:08:20;39.60;;;22.38;;
22648;SDS011;11491;41.942;24.220;2024-01-27T10:10:48;36.08;;;22.80;;
22648;SDS011;11491;41.942;24.220;2024-01-27T10:13:19;23.65;;;15.90;;
22648;SDS011;11491;41.942;24.220;2024-01-27T10:15:58;49.42;;;34.25;;
22648;SDS011;11491;41.942;24.220;2024-01-27T10:18:26;56.42;;;38.05;;
22648;SDS011;11491;41.942;24.220;2024-01-27T10:20:53;44.90;;;30.30;;
22648;SDS011;11491;41.942;24.220;2024-01-27T10:23:21;33.78;;;24.80;;
22648;SDS011;11491;41.942;24.220;2024-01-27T10:25:48;36.72;;;25.90;;
22648;SDS011;11491;41.942;24.220;2024-01-27T10:28:15;47.70;;;33.90;;
22648;SDS011;11491;41.942;24.220;2024-01-27T10:30:42;42.85;;;29.45;;
22648;SDS011;11491;41.942;24.220;2024-01-27T10:33:09;14.50;;;9.55;;
22648;SDS011;11491;41.942;24.220;2024-01-27T10:35:38;15.32;;;9.73;;
22648;SDS011;11491;41.942;24.220;2024-01-27T10:38:05;7.40;;;4.45;;
22648;SDS011;11491;41.942;24.220;2024-01-27T10:40:34;7.53;;;5.43;;
22648;SDS011;11491;41.942;24.220;2024-01-27T10:43:02;11.50;;;7.75;;
22648;SDS011;11491;41.942;24.220;2024-01-27T10:45:33;28.33;;;18.63;;
22648;SDS011;11491;41.942;24.220;2024-01-27T10:48:01;27.23;;;17.05;;
22648;SDS011;11491;41.942;24.220;2024-01-27T10:50:29;15.20;;;9.45;;
22648;SDS011;11491;41.942;24.220;2024-01-27T10:52:57;11.18;;;7.18;;
22648;SDS011;11491;41.942;24.220;2024-01-27T10:55:24;15.75;;;8.98;;
22648;SDS011;11491;41.942;24.220;2024-01-27T10:57:53;10.35;;;6.55;;
22648;SDS011;11491;41.942;24.220;2024-01-27T11:00:21;16.05;;;8.02;;
22648;SDS011;11491;41.942;24.220;2024-01-27T11:02:50;5.35;;;2.63;;
22648;SDS011;11491;41.942;24.220;2024-01-27T11:05:19;19.20;;;9.60;;
22648;SDS011;11491;41.942;24.220;2024-01-27T11:07:47;4.95;;;3.92;;
22648;SDS011;11491;41.942;24.220;2024-01-27T11:10:16;6.07;;;2.60;;
22648;SDS011;11491;41.942;24.220;2024-01-27T11:12:43;2.28;;;1.15;;
22648;SDS011;11491;41.942;24.220;2024-01-27T11:15:12;2.42;;;2.10;;
22648;SDS011;11491;41.942;24.220;2024-01-27T11:17:39;5.22;;;3.38;;
22648;SDS011;11491;41.942;24.220;2024-01-27T11:20:07;6.50;;;4.20;;
22648;SDS011;11491;41.942;24.220;2024-01-27T11:22:36;17.58;;;10.52;;
22648;SDS011;11491;41.942;24.220;2024-01-27T11:25:08;6.00;;;4.18;;
22648;SDS011;11491;41.942;24.220;2024-01-27T11:27:41;10.02;;;6.05;;
22648;SDS011;11491;41.942;24.220;2024-01-27T11:30:25;3.65;;;2.28;;
22648;SDS011;11491;41.942;24.220;2024-01-27T11:32:54;9.93;;;6.18;;
22648;SDS011;11491;41.942;24.220;2024-01-27T11:35:21;2.85;;;2.20;;
22648;SDS011;11491;41.942;24.220;2024-01-27T11:37:48;3.05;;;1.73;;
22648;SDS011;11491;41.942;24.220;2024-01-27T11:40:15;19.85;;;10.15;;
22648;SDS011;11491;41.942;24.220;2024-01-27T11:42:42;8.75;;;4.97;;
22648;SDS011;11491;41.942;24.220;2024-01-27T11:45:09;4.53;;;2.53;;
22648;SDS011;11491;41.942;24.220;2024-01-27T11:47:37;20.10;;;10.43;;
22648;SDS011;11491;41.942;24.220;2024-01-27T11:50:04;1.92;;;1.02;;
22648;SDS011;11491;41.942;24.220;2024-01-27T11:52:31;20.50;;;11.88;;
22648;SDS011;11491;41.942;24.220;2024-01-27T11:54:57;5.28;;;4.07;;
22648;SDS011;11491;41.942;24.220;2024-01-27T11:57:25;2.08;;;1.30;;
22648;SDS011;11491;41.942;24.220;2024-01-27T11:59:53;2.60;;;1.50;;
22648;SDS011;11491;41.942;24.220;2024-01-27T12:02:20;4.10;;;2.05;;
22648;SDS011;11491;41.942;24.220;2024-01-27T12:04:48;5.40;;;3.30;;
22648;SDS011;11491;41.942;24.220;2024-01-27T12:07:16;2.75;;;1.55;;
22648;SDS011;11491;41.942;24.220;2024-01-27T12:09:43;3.55;;;2.70;;
22648;SDS011;11491;41.942;24.220;2024-01-27T12:12:10;9.88;;;8.07;;
22648;SDS011;11491;41.942;24.220;2024-01-27T12:14:39;3.63;;;2.60;;
22648;SDS011;11491;41.942;24.220;2024-01-27T12:17:08;5.68;;;3.58;;
22648;SDS011;11491;41.942;24.220;2024-01-27T12:19:36;10.15;;;6.40;;
22648;SDS011;11491;41.942;24.220;2024-01-27T12:22:04;8.98;;;6.05;;
22648;SDS011;11491;41.942;24.220;2024-01-27T12:24:47;12.27;;;7.32;;
22648;SDS011;11491;41.942;24.220;2024-01-27T12:27:13;6.57;;;3.63;;
22648;SDS011;11491;41.942;24.220;2024-01-27T12:29:40;12.43;;;6.15;;
22648;SDS011;11491;41.942;24.220;2024-01-27T12:32:07;8.75;;;4.50;;
22648;SDS011;11491;41.942;24.220;2024-01-27T12:34:39;9.25;;;4.57;;
22648;SDS011;11491;41.942;24.220;2024-01-27T12:37:08;9.05;;;5.60;;
22648;SDS011;11491;41.942;24.220;2024-01-27T12:39:37;8.40;;;5.40;;
22648;SDS011;11491;41.942;24.220;2024-01-27T12:42:07;6.18;;;2.85;;
22648;SDS011;11491;41.942;24.220;2024-01-27T12:44:34;10.15;;;6.50;;
22648;SDS011;11491;41.942;24.220;2024-01-27T12:47:01;7.53;;;5.95;;
22648;SDS011;11491;41.942;24.220;2024-01-27T12:49:29;35.90;;;23.02;;
22648;SDS011;11491;41.942;24.220;2024-01-27T12:51:55;23.08;;;14.85;;
22648;SDS011;11491;41.942;24.220;2024-01-27T12:54:24;10.43;;;6.63;;
22648;SDS011;11491;41.942;24.220;2024-01-27T12:56:50;9.57;;;5.68;;
22648;SDS011;11491;41.942;24.220;2024-01-27T12:59:17;5.80;;;4.50;;
22648;SDS011;11491;41.942;24.220;2024-01-27T13:01:44;5.32;;;3.30;;
22648;SDS011;11491;41.942;24.220;2024-01-27T13:04:11;4.22;;;3.13;;
22648;SDS011;11491;41.942;24.220;2024-01-27T13:06:39;4.95;;;3.10;;
22648;SDS011;11491;41.942;24.220;2024-01-27T13:09:06;9.05;;;4.97;;
22648;SDS011;11491;41.942;24.220;2024-01-27T13:11:37;5.70;;;2.70;;
22648;SDS011;11491;41.942;24.220;2024-01-27T13:14:04;6.63;;;5.50;;
22648;SDS011;11491;41.942;24.220;2024-01-27T13:16:31;15.45;;;11.07;;
22648;SDS011;11491;41.942;24.220;2024-01-27T13:18:58;7.85;;;4.35;;
22648;SDS011;11491;41.942;24.220;2024-01-27T13:21:25;6.82;;;2.95;;
22648;SDS011;11491;41.942;24.220;2024-01-27T13:23:52;12.93;;;7.07;;
22648;SDS011;11491;41.942;24.220;2024-01-27T13:26:18;15.50;;;10.45;;
22648;SDS011;11491;41.942;24.220;2024-01-27T13:28:47;11.85;;;8.10;;
22648;SDS011;11491;41.942;24.220;2024-01-27T13:31:14;14.25;;;9.85;;
22648;SDS011;11491;41.942;24.220;2024-01-27T13:33:41;13.25;;;6.82;;
22648;SDS011;11491;41.942;24.220;2024-01-27T13:36:08;7.85;;;5.72;;
22648;SDS011;11491;41.942;24.220;2024-01-27T13:38:35;16.83;;;11.90;;
22648;SDS011;11491;41.942;24.220;2024-01-27T13:41:02;12.75;;;9.65;;
22648;SDS011;11491;41.942;24.220;2024-01-27T13:43:29;10.57;;;6.93;;
22648;SDS011;11491;41.942;24.220;2024-01-27T13:45:57;16.13;;;11.90;;
22648;SDS011;11491;41.942;24.220;2024-01-27T13:48:24;17.17;;;10.65;;
22648;SDS011;11491;41.942;24.220;2024-01-27T13:50:51;8.55;;;6.60;;
22648;SDS011;11491;41.942;24.220;2024-01-27T13:53:19;8.65;;;6.00;;
22648;SDS011;11491;41.942;24.220;2024-01-27T13:55:45;13.25;;;9.10;;
22648;SDS011;11491;41.942;24.220;2024-01-27T13:58:12;11.23;;;8.20;;
22648;SDS011;11491;41.942;24.220;2024-01-27T14:00:39;6.90;;;5.18;;
22648;SDS011;11491;41.942;24.220;2024-01-27T14:03:07;13.10;;;7.22;;
22648;SDS011;11491;41.942;24.220;2024-01-27T14:05:34;16.35;;;12.18;;
22648;SDS011;11491;41.942;24.220;2024-01-27T14:08:00;5.25;;;3.28;;
22648;SDS011;11491;41.942;24.220;2024-01-27T14:10:29;5.38;;;3.78;;